Wetterdaten: Woche 04.08.14 - 10.08.14 (KW32)
Datum Zeit Temp. A. Feuchte A. Luftdruck Regen Wind Richtung Sonnenschein ET UV Solar Taupunkt Windchill Windben
04.08.2014 00:00 15,7 C 94 % 1011,9 hPa 0,0 l/m 1,5 km/h (1 Bft) NW 0,00 h 0,000 mm 0,0 UV-I 0 W/m 14,8 C 15,7 C 3,1 km/h (1 Bft)
04.08.2014 01:00 15,2 C 95 % 1012,1 hPa 0,0 l/m 1,3 km/h (1 Bft) O 0,00 h 0,000 mm 0,0 UV-I 0 W/m 14,5 C 15,2 C 2,9 km/h (1 Bft)
04.08.2014 02:00 15,0 C 96 % 1012,3 hPa 0,0 l/m 0,2 km/h (0 Bft) S 0,00 h 0,000 mm 0,0 UV-I 0 W/m 14,4 C 15,0 C 0,7 km/h (0 Bft)
04.08.2014 03:00 14,9 C 96 % 1012,5 hPa 0,0 l/m 0,2 km/h (0 Bft) O-SO 0,00 h 0,000 mm 0,0 UV-I 0 W/m 14,3 C 14,9 C 0,9 km/h (0 Bft)
04.08.2014 04:00 15,3 C 96 % 1012,5 hPa 0,0 l/m 0,2 km/h (0 Bft) NW 0,00 h 0,000 mm 0,0 UV-I 0 W/m 14,6 C 15,3 C 0,8 km/h (0 Bft)
04.08.2014 05:00 15,8 C 96 % 1013,0 hPa 0,0 l/m 0,1 km/h (0 Bft) S-SW 0,00 h 0,000 mm 0,0 UV-I 6 W/m 15,1 C 15,8 C 0,6 km/h (0 Bft)
04.08.2014 06:00 16,2 C 95 % 1013,3 hPa 0,0 l/m 1,0 km/h (0 Bft) W-SW 0,00 h 0,000 mm 0,0 UV-I 17 W/m 15,4 C 16,2 C 2,5 km/h (1 Bft)
04.08.2014 07:00 16,3 C 95 % 1013,6 hPa 0,0 l/m 1,3 km/h (1 Bft) S-SO 0,42 h 0,000 mm 0,0 UV-I 44 W/m 15,6 C 16,3 C 2,6 km/h (1 Bft)
04.08.2014 08:00 16,8 C 94 % 1014,2 hPa 0,0 l/m 1,6 km/h (1 Bft) S-SW 0,83 h 0,025 mm 0,7 UV-I 83 W/m 15,8 C 16,8 C 3,3 km/h (1 Bft)
04.08.2014 09:00 17,6 C 91 % 1014,3 hPa 0,0 l/m 1,7 km/h (1 Bft) S 1,00 h 0,051 mm 1,1 UV-I 143 W/m 16,1 C 17,6 C 3,7 km/h (1 Bft)
04.08.2014 10:00 19,3 C 86 % 1014,4 hPa 0,0 l/m 1,9 km/h (1 Bft) S-SW 1,00 h 0,076 mm 3,1 UV-I 454 W/m 16,9 C 19,3 C 4,1 km/h (1 Bft)
04.08.2014 11:00 21,1 C 79 % 1014,4 hPa 0,0 l/m 2,6 km/h (1 Bft) S-SO 1,00 h 0,254 mm 4,1 UV-I 449 W/m 17,3 C 21,1 C 5,1 km/h (1 Bft)
04.08.2014 12:00 20,7 C 76 % 1014,2 hPa 0,0 l/m 6,8 km/h (2 Bft) N-NO 1,00 h 0,279 mm 2,4 UV-I 274 W/m 16,4 C 20,0 C 10,9 km/h (2 Bft)
04.08.2014 13:00 18,5 C 89 % 1014,4 hPa 2,0 l/m 3,0 km/h (1 Bft) NO 1,00 h 0,178 mm 0,9 UV-I 100 W/m 16,7 C 18,5 C 5,4 km/h (1 Bft)
04.08.2014 14:00 20,0 C 86 % 1014,3 hPa 0,0 l/m 1,8 km/h (1 Bft) S 1,00 h 0,051 mm 4,0 UV-I 520 W/m 17,5 C 20,0 C 3,4 km/h (1 Bft)
04.08.2014 15:00 20,5 C 84 % 1014,5 hPa 0,0 l/m 2,7 km/h (1 Bft) S 1,00 h 0,305 mm 3,0 UV-I 345 W/m 17,7 C 20,5 C 4,7 km/h (1 Bft)
04.08.2014 16:00 21,0 C 79 % 1014,6 hPa 1,8 l/m 7,5 km/h (2 Bft) N-NW 0,93 h 0,203 mm 2,5 UV-I 376 W/m 17,2 C 20,3 C 11,5 km/h (2 Bft)
04.08.2014 17:00 18,5 C 90 % 1014,6 hPa 0,0 l/m 1,8 km/h (1 Bft) N-NO 0,87 h 0,229 mm 1,0 UV-I 105 W/m 16,8 C 18,4 C 3,7 km/h (1 Bft)
04.08.2014 18:00 18,7 C 88 % 1014,7 hPa 0,0 l/m 1,4 km/h (1 Bft) W-NW 0,77 h 0,051 mm 0,5 UV-I 75 W/m 16,8 C 18,7 C 2,6 km/h (1 Bft)
04.08.2014 19:00 18,8 C 86 % 1014,4 hPa 0,0 l/m 1,1 km/h (1 Bft) O 0,08 h 0,051 mm 0,5 UV-I 29 W/m 16,5 C 18,8 C 2,5 km/h (1 Bft)
04.08.2014 20:00 17,9 C 91 % 1014,4 hPa 0,0 l/m 0,4 km/h (0 Bft) O 0,00 h 0,025 mm 0,0 UV-I 10 W/m 16,4 C 17,9 C 1,3 km/h (1 Bft)
04.08.2014 21:00 16,4 C 95 % 1014,7 hPa 0,0 l/m 0,8 km/h (0 Bft) O-NO 0,00 h 0,000 mm 0,0 UV-I 0 W/m 15,5 C 16,4 C 2,1 km/h (1 Bft)
04.08.2014 22:00 15,3 C 96 % 1015,1 hPa 0,0 l/m 0,3 km/h (0 Bft) O-NO 0,00 h 0,000 mm 0,0 UV-I 0 W/m 14,7 C 15,3 C 0,7 km/h (0 Bft)
04.08.2014 23:00 15,1 C 96 % 1015,5 hPa 0,0 l/m 0,7 km/h (0 Bft) NO 0,00 h 0,000 mm 0,0 UV-I 0 W/m 14,4 C 15,1 C 1,9 km/h (1 Bft)
05.08.2014 00:00 15,5 C 95 % 1016,0 hPa 0,0 l/m 6,3 km/h (2 Bft) N-NW 0,00 h 0,000 mm 0,0 UV-I 0 W/m 14,7 C 14,7 C 9,8 km/h (2 Bft)
05.08.2014 01:00 14,9 C 94 % 1015,5 hPa 0,2 l/m 0,7 km/h (0 Bft) O 0,00 h 0,000 mm 0,0 UV-I 0 W/m 13,9 C 14,9 C 1,8 km/h (1 Bft)
05.08.2014 02:00 14,1 C 96 % 1015,2 hPa 0,0 l/m 0,4 km/h (0 Bft) N 0,00 h 0,000 mm 0,0 UV-I 0 W/m 13,5 C 14,1 C 1,0 km/h (0 Bft)
05.08.2014 03:00 13,3 C 96 % 1015,3 hPa 0,0 l/m 0,5 km/h (0 Bft) N 0,00 h 0,000 mm 0,0 UV-I 0 W/m 12,8 C 13,3 C 1,1 km/h (0 Bft)
05.08.2014 04:00 13,2 C 97 % 1015,6 hPa 0,0 l/m 0,2 km/h (0 Bft) N 0,00 h 0,000 mm 0,0 UV-I 0 W/m 12,7 C 13,2 C 0,7 km/h (0 Bft)
05.08.2014 05:00 12,8 C 97 % 1016,0 hPa 0,0 l/m 0,1 km/h (0 Bft) N 0,00 h 0,000 mm 0,0 UV-I 6 W/m 12,4 C 12,8 C 0,3 km/h (0 Bft)
05.08.2014 06:00 13,0 C 98 % 1016,3 hPa 0,0 l/m 0,1 km/h (0 Bft) NO 0,00 h 0,000 mm 0,0 UV-I 21 W/m 12,7 C 13,0 C 0,5 km/h (0 Bft)
05.08.2014 07:00 13,5 C 98 % 1016,5 hPa 0,0 l/m 0,1 km/h (0 Bft) N 0,50 h 0,000 mm 0,5 UV-I 58 W/m 13,2 C 13,5 C 0,6 km/h (0 Bft)
05.08.2014 08:00 14,3 C 97 % 1016,5 hPa 0,0 l/m 0,7 km/h (0 Bft) O-SO 1,00 h 0,025 mm 0,7 UV-I 127 W/m 13,9 C 14,3 C 1,9 km/h (1 Bft)
05.08.2014 09:00 15,3 C 95 % 1016,7 hPa 0,0 l/m 1,9 km/h (1 Bft) S 1,00 h 0,076 mm 1,1 UV-I 163 W/m 14,5 C 15,3 C 4,0 km/h (1 Bft)
05.08.2014 10:00 16,7 C 90 % 1016,9 hPa 0,0 l/m 3,8 km/h (1 Bft) W 1,00 h 0,076 mm 1,6 UV-I 197 W/m 15,1 C 16,7 C 6,2 km/h (2 Bft)
05.08.2014 11:00 17,8 C 86 % 1017,0 hPa 0,0 l/m 3,8 km/h (1 Bft) S-SW 1,00 h 0,102 mm 3,3 UV-I 372 W/m 15,4 C 17,8 C 6,4 km/h (2 Bft)
05.08.2014 12:00 19,7 C 79 % 1016,9 hPa 0,0 l/m 3,2 km/h (1 Bft) W-NW 1,00 h 0,229 mm 3,9 UV-I 509 W/m 15,9 C 19,7 C 5,8 km/h (2 Bft)
05.08.2014 13:00 20,3 C 75 % 1016,7 hPa 0,0 l/m 6,4 km/h (2 Bft) W 1,00 h 0,279 mm 3,5 UV-I 432 W/m 15,7 C 19,8 C 10,0 km/h (2 Bft)
05.08.2014 14:00 21,9 C 68 % 1016,5 hPa 0,0 l/m 7,1 km/h (2 Bft) NW 1,00 h 0,280 mm 4,1 UV-I 518 W/m 15,7 C 21,5 C 11,4 km/h (2 Bft)
05.08.2014 15:00 22,1 C 64 % 1016,4 hPa 0,0 l/m 8,3 km/h (2 Bft) W-NW 1,00 h 0,381 mm 3,3 UV-I 453 W/m 15,0 C 21,4 C 12,4 km/h (3 Bft)
05.08.2014 16:00 22,8 C 59 % 1016,1 hPa 0,0 l/m 6,3 km/h (2 Bft) W 1,00 h 0,305 mm 3,1 UV-I 620 W/m 14,5 C 22,6 C 9,6 km/h (2 Bft)
05.08.2014 17:00 21,6 C 65 % 1015,9 hPa 0,0 l/m 6,7 km/h (2 Bft) N-NW 1,00 h 0,406 mm 1,0 UV-I 151 W/m 14,8 C 21,2 C 10,3 km/h (2 Bft)
05.08.2014 18:00 20,6 C 66 % 1016,3 hPa 0,0 l/m 10,3 km/h (2 Bft) NW 1,00 h 0,127 mm 0,7 UV-I 119 W/m 13,9 C 19,2 C 15,6 km/h (3 Bft)
05.08.2014 19:00 19,8 C 66 % 1016,7 hPa 0,0 l/m 5,9 km/h (2 Bft) NW 0,28 h 0,127 mm 0,0 UV-I 45 W/m 13,2 C 19,5 C 8,9 km/h (2 Bft)
05.08.2014 20:00 18,3 C 77 % 1017,1 hPa 0,0 l/m 5,3 km/h (1 Bft) N 0,00 h 0,051 mm 0,0 UV-I 16 W/m 14,2 C 18,1 C 8,1 km/h (2 Bft)
05.08.2014 21:00 16,5 C 86 % 1017,7 hPa 0,0 l/m 2,9 km/h (1 Bft) N 0,00 h 0,025 mm 0,0 UV-I 0 W/m 14,1 C 16,5 C 5,2 km/h (1 Bft)
05.08.2014 22:00 15,4 C 89 % 1017,9 hPa 0,0 l/m 0,8 km/h (0 Bft) N-NW 0,00 h 0,025 mm 0,0 UV-I 0 W/m 13,7 C 15,4 C 2,1 km/h (1 Bft)
05.08.2014 23:00 14,9 C 91 % 1018,1 hPa 0,0 l/m 0,4 km/h (0 Bft) N-NW 0,00 h 0,000 mm 0,0 UV-I 0 W/m 13,6 C 14,9 C 1,4 km/h (1 Bft)
06.08.2014 00:00 13,7 C 94 % 1018,3 hPa 0,0 l/m 0,0 km/h (0 Bft) N 0,00 h 0,000 mm 0,0 UV-I 0 W/m 12,8 C 13,7 C 0,2 km/h (0 Bft)
06.08.2014 01:00 13,1 C 95 % 1018,3 hPa 0,0 l/m 0,0 km/h (0 Bft) N 0,00 h 0,000 mm 0,0 UV-I 0 W/m 12,4 C 13,1 C 0,1 km/h (0 Bft)
06.08.2014 02:00 13,1 C 95 % 1018,3 hPa 0,0 l/m 0,0 km/h (0 Bft) N 0,00 h 0,000 mm 0,0 UV-I 0 W/m 12,4 C 13,1 C 0,0 km/h (0 Bft)
06.08.2014 03:00 12,6 C 96 % 1018,1 hPa 0,0 l/m 0,0 km/h (0 Bft) N 0,00 h 0,000 mm 0,0 UV-I 0 W/m 11,9 C 12,6 C 0,1 km/h (0 Bft)
06.08.2014 04:00 12,3 C 96 % 1018,0 hPa 0,0 l/m 0,0 km/h (0 Bft) N 0,00 h 0,000 mm 0,0 UV-I 0 W/m 11,8 C 12,3 C 0,2 km/h (0 Bft)
06.08.2014 05:00 12,7 C 97 % 1018,0 hPa 0,0 l/m 1,0 km/h (0 Bft) N 0,00 h 0,000 mm 0,0 UV-I 0 W/m 12,2 C 12,7 C 2,6 km/h (1 Bft)
06.08.2014 06:00 13,5 C 96 % 1018,0 hPa 0,0 l/m 1,8 km/h (1 Bft) N 0,00 h 0,000 mm 0,0 UV-I 19 W/m 12,9 C 13,5 C 3,8 km/h (1 Bft)
06.08.2014 07:00 14,0 C 94 % 1018,0 hPa 0,0 l/m 2,8 km/h (1 Bft) NW 0,95 h 0,000 mm 0,6 UV-I 78 W/m 13,1 C 14,0 C 4,9 km/h (1 Bft)
06.08.2014 08:00 15,0 C 91 % 1017,9 hPa 0,0 l/m 0,9 km/h (0 Bft) N 1,00 h 0,051 mm 0,9 UV-I 155 W/m 13,6 C 15,0 C 2,4 km/h (1 Bft)
06.08.2014 09:00 17,5 C 81 % 1017,8 hPa 0,0 l/m 4,1 km/h (1 Bft) N 1,00 h 0,076 mm 2,3 UV-I 487 W/m 14,1 C 17,3 C 6,7 km/h (2 Bft)
06.08.2014 10:00 19,6 C 69 % 1017,5 hPa 0,0 l/m 3,0 km/h (1 Bft) N-NW 1,00 h 0,279 mm 3,7 UV-I 666 W/m 13,8 C 19,6 C 5,6 km/h (1 Bft)
06.08.2014 11:00 21,1 C 62 % 1017,3 hPa 0,0 l/m 2,2 km/h (1 Bft) SO 1,00 h 0,381 mm 5,0 UV-I 776 W/m 13,6 C 21,1 C 4,6 km/h (1 Bft)
06.08.2014 12:00 22,2 C 59 % 1016,8 hPa 0,0 l/m 3,2 km/h (1 Bft) W-NW 1,00 h 0,457 mm 5,0 UV-I 693 W/m 13,7 C 22,2 C 5,8 km/h (2 Bft)
06.08.2014 13:00 22,3 C 57 % 1016,4 hPa 0,0 l/m 1,8 km/h (1 Bft) NO 1,00 h 0,406 mm 4,7 UV-I 537 W/m 13,3 C 22,3 C 4,1 km/h (1 Bft)
06.08.2014 14:00 22,1 C 57 % 1016,1 hPa 0,0 l/m 5,2 km/h (1 Bft) SO 1,00 h 0,356 mm 4,0 UV-I 471 W/m 13,2 C 22,0 C 9,1 km/h (2 Bft)
06.08.2014 15:00 22,9 C 53 % 1015,7 hPa 0,0 l/m 3,1 km/h (1 Bft) S 1,00 h 0,330 mm 3,5 UV-I 485 W/m 12,9 C 22,9 C 5,7 km/h (1 Bft)
06.08.2014 16:00 22,2 C 54 % 1015,4 hPa 0,0 l/m 4,8 km/h (1 Bft) S-SO 1,00 h 0,305 mm 2,2 UV-I 316 W/m 12,4 C 22,1 C 7,5 km/h (2 Bft)
06.08.2014 17:00 22,6 C 51 % 1015,1 hPa 0,0 l/m 2,2 km/h (1 Bft) S 1,00 h 0,229 mm 1,6 UV-I 325 W/m 12,0 C 22,6 C 4,4 km/h (1 Bft)
06.08.2014 18:00 22,2 C 53 % 1014,6 hPa 0,0 l/m 3,9 km/h (1 Bft) SO 1,00 h 0,229 mm 0,6 UV-I 106 W/m 12,3 C 22,2 C 6,6 km/h (2 Bft)
06.08.2014 19:00 21,1 C 59 % 1014,6 hPa 0,0 l/m 0,5 km/h (0 Bft) O 0,05 h 0,102 mm 0,0 UV-I 45 W/m 12,8 C 21,1 C 1,8 km/h (1 Bft)
06.08.2014 20:00 19,6 C 69 % 1014,7 hPa 0,0 l/m 0,7 km/h (0 Bft) O 0,00 h 0,051 mm 0,0 UV-I 19 W/m 13,8 C 19,6 C 1,5 km/h (1 Bft)
06.08.2014 21:00 17,3 C 83 % 1014,9 hPa 0,0 l/m 0,5 km/h (0 Bft) O-NO 0,00 h 0,025 mm 0,0 UV-I 0 W/m 14,3 C 17,3 C 1,5 km/h (1 Bft)
06.08.2014 22:00 15,9 C 86 % 1015,1 hPa 0,0 l/m 1,6 km/h (1 Bft) O 0,00 h 0,025 mm 0,0 UV-I 0 W/m 13,5 C 15,9 C 3,8 km/h (1 Bft)
06.08.2014 23:00 15,5 C 85 % 1015,1 hPa 0,0 l/m 1,7 km/h (1 Bft) O 0,00 h 0,025 mm 0,0 UV-I 0 W/m 13,0 C 15,5 C 3,5 km/h (1 Bft)
07.08.2014 00:00 15,2 C 87 % 1015,1 hPa 0,0 l/m 0,4 km/h (0 Bft) O-NO 0,00 h 0,025 mm 0,0 UV-I 0 W/m 13,0 C 15,2 C 2,0 km/h (1 Bft)
07.08.2014 01:00 15,4 C 87 % 1014,9 hPa 0,0 l/m 0,0 km/h (0 Bft) N 0,00 h 0,000 mm 0,0 UV-I 0 W/m 13,2 C 15,4 C 0,4 km/h (0 Bft)
07.08.2014 02:00 15,2 C 89 % 1014,5 hPa 0,0 l/m 0,0 km/h (0 Bft) N 0,00 h 0,000 mm 0,0 UV-I 0 W/m 13,3 C 15,2 C 0,0 km/h (0 Bft)
07.08.2014 03:00 14,8 C 90 % 1014,2 hPa 0,0 l/m 0,1 km/h (0 Bft) O 0,00 h 0,000 mm 0,0 UV-I 0 W/m 13,2 C 14,8 C 0,5 km/h (0 Bft)
07.08.2014 04:00 14,8 C 89 % 1014,5 hPa 0,0 l/m 2,3 km/h (1 Bft) W 0,00 h 0,000 mm 0,0 UV-I 0 W/m 13,1 C 14,7 C 4,0 km/h (1 Bft)
07.08.2014 05:00 15,2 C 87 % 1014,5 hPa 0,0 l/m 1,4 km/h (1 Bft) S-SO 0,00 h 0,000 mm 0,0 UV-I 0 W/m 13,1 C 15,2 C 3,0 km/h (1 Bft)
07.08.2014 06:00 15,3 C 88 % 1014,4 hPa 0,0 l/m 0,4 km/h (0 Bft) O-SO 0,00 h 0,000 mm 0,0 UV-I 11 W/m 13,2 C 15,3 C 1,6 km/h (1 Bft)
07.08.2014 07:00 15,5 C 89 % 1014,4 hPa 0,0 l/m 0,8 km/h (0 Bft) O-SO 0,38 h 0,000 mm 0,0 UV-I 43 W/m 13,6 C 15,5 C 1,5 km/h (1 Bft)
07.08.2014 08:00 16,5 C 86 % 1014,4 hPa 0,0 l/m 1,4 km/h (1 Bft) W-SW 1,00 h 0,025 mm 0,7 UV-I 119 W/m 14,1 C 16,5 C 2,8 km/h (1 Bft)
07.08.2014 09:00 17,5 C 80 % 1014,6 hPa 0,0 l/m 4,6 km/h (1 Bft) W 1,00 h 0,076 mm 1,3 UV-I 178 W/m 14,1 C 17,5 C 7,4 km/h (2 Bft)
07.08.2014 10:00 17,9 C 77 % 1014,9 hPa 0,0 l/m 1,5 km/h (1 Bft) W-NW 1,00 h 0,102 mm 1,8 UV-I 225 W/m 13,7 C 17,9 C 3,2 km/h (1 Bft)
07.08.2014 11:00 19,0 C 72 % 1015,0 hPa 0,0 l/m 1,7 km/h (1 Bft) S-SO 1,00 h 0,127 mm 3,2 UV-I 351 W/m 13,7 C 19,0 C 3,5 km/h (1 Bft)
07.08.2014 12:00 20,6 C 63 % 1014,7 hPa 0,0 l/m 3,4 km/h (1 Bft) S 1,00 h 0,203 mm 4,7 UV-I 527 W/m 13,4 C 20,6 C 5,7 km/h (1 Bft)
07.08.2014 13:00 22,5 C 56 % 1014,4 hPa 0,0 l/m 8,0 km/h (2 Bft) S 1,00 h 0,330 mm 5,8 UV-I 709 W/m 13,3 C 21,9 C 12,1 km/h (2 Bft)
07.08.2014 14:00 22,4 C 56 % 1014,2 hPa 0,0 l/m 7,5 km/h (2 Bft) S 1,00 h 0,508 mm 4,3 UV-I 506 W/m 13,0 C 21,9 C 11,7 km/h (2 Bft)
07.08.2014 15:00 22,3 C 55 % 1014,0 hPa 0,0 l/m 6,0 km/h (2 Bft) S-SO 1,00 h 0,356 mm 2,8 UV-I 320 W/m 12,7 C 22,0 C 9,1 km/h (2 Bft)
07.08.2014 16:00 21,6 C 59 % 1013,9 hPa 0,0 l/m 6,6 km/h (2 Bft) W-SW 1,00 h 0,229 mm 1,1 UV-I 131 W/m 13,1 C 21,3 C 10,2 km/h (2 Bft)
07.08.2014 17:00 20,4 C 70 % 1014,1 hPa 0,0 l/m 3,8 km/h (1 Bft) W-SW 1,00 h 0,127 mm 1,0 UV-I 226 W/m 14,7 C 20,2 C 6,4 km/h (2 Bft)
07.08.2014 18:00 21,8 C 60 % 1013,7 hPa 0,0 l/m 2,8 km/h (1 Bft) W-NW 1,00 h 0,152 mm 0,8 UV-I 138 W/m 13,5 C 21,8 C 4,9 km/h (1 Bft)
07.08.2014 19:00 21,1 C 62 % 1013,7 hPa 0,0 l/m 3,1 km/h (1 Bft) W 0,08 h 0,102 mm 0,0 UV-I 34 W/m 13,6 C 21,1 C 5,3 km/h (1 Bft)
07.08.2014 20:00 19,4 C 71 % 1014,0 hPa 0,0 l/m 0,7 km/h (0 Bft) W-NW 0,00 h 0,051 mm 0,0 UV-I 12 W/m 14,0 C 19,4 C 1,3 km/h (1 Bft)
07.08.2014 21:00 17,3 C 83 % 1014,6 hPa 0,0 l/m 0,1 km/h (0 Bft) O-SO 0,00 h 0,025 mm 0,0 UV-I 0 W/m 14,4 C 17,3 C 0,7 km/h (0 Bft)
07.08.2014 22:00 16,1 C 87 % 1015,0 hPa 0,0 l/m 0,1 km/h (0 Bft) O-NO 0,00 h 0,025 mm 0,0 UV-I 0 W/m 14,0 C 16,1 C 0,7 km/h (0 Bft)
07.08.2014 23:00 15,2 C 91 % 1015,1 hPa 0,0 l/m 0,2 km/h (0 Bft) O 0,00 h 0,000 mm 0,0 UV-I 0 W/m 13,7 C 15,2 C 0,8 km/h (0 Bft)
08.08.2014 00:00 14,5 C 92 % 1015,2 hPa 0,0 l/m 0,2 km/h (0 Bft) N-NO 0,00 h 0,000 mm 0,0 UV-I 0 W/m 13,3 C 14,5 C 0,4 km/h (0 Bft)
08.08.2014 01:00 13,9 C 93 % 1015,3 hPa 0,0 l/m 0,5 km/h (0 Bft) O-NO 0,00 h 0,000 mm 0,0 UV-I 0 W/m 12,8 C 13,9 C 1,2 km/h (1 Bft)
08.08.2014 02:00 13,1 C 94 % 1015,3 hPa 0,0 l/m 0,0 km/h (0 Bft) N 0,00 h 0,000 mm 0,0 UV-I 0 W/m 12,2 C 13,1 C 0,1 km/h (0 Bft)
08.08.2014 03:00 12,4 C 95 % 1015,1 hPa 0,0 l/m 0,0 km/h (0 Bft) N 0,00 h 0,000 mm 0,0 UV-I 0 W/m 11,6 C 12,4 C 0,3 km/h (0 Bft)
08.08.2014 04:00 11,7 C 95 % 1015,1 hPa 0,0 l/m 0,0 km/h (0 Bft) N 0,00 h 0,000 mm 0,0 UV-I 0 W/m 10,9 C 11,7 C 0,0 km/h (0 Bft)
08.08.2014 05:00 11,2 C 96 % 1015,2 hPa 0,0 l/m 0,0 km/h (0 Bft) O 0,00 h 0,000 mm 0,0 UV-I 5 W/m 10,5 C 11,2 C 0,3 km/h (0 Bft)
08.08.2014 06:00 10,9 C 96 % 1015,4 hPa 0,0 l/m 0,0 km/h (0 Bft) N 0,00 h 0,000 mm 0,0 UV-I 16 W/m 10,2 C 10,9 C 0,0 km/h (0 Bft)
08.08.2014 07:00 12,3 C 94 % 1015,4 hPa 0,0 l/m 0,1 km/h (0 Bft) O 0,67 h 0,000 mm 0,6 UV-I 128 W/m 11,3 C 12,3 C 0,4 km/h (0 Bft)
08.08.2014 08:00 15,4 C 88 % 1015,3 hPa 0,0 l/m 0,0 km/h (0 Bft) N 1,00 h 0,051 mm 1,2 UV-I 302 W/m 13,4 C 15,4 C 0,6 km/h (0 Bft)
08.08.2014 09:00 19,2 C 79 % 1015,2 hPa 0,0 l/m 1,2 km/h (1 Bft) S-SO 1,00 h 0,152 mm 2,5 UV-I 515 W/m 15,4 C 19,2 C 2,6 km/h (1 Bft)
08.08.2014 10:00 21,9 C 65 % 1015,0 hPa 0,0 l/m 1,9 km/h (1 Bft) W-SW 1,00 h 0,305 mm 3,9 UV-I 656 W/m 14,9 C 21,9 C 4,1 km/h (1 Bft)
08.08.2014 11:00 23,4 C 50 % 1014,7 hPa 0,0 l/m 3,0 km/h (1 Bft) S-SW 1,00 h 0,406 mm 5,2 UV-I 756 W/m 12,4 C 23,4 C 5,5 km/h (1 Bft)
08.08.2014 12:00 24,3 C 48 % 1014,3 hPa 0,0 l/m 3,2 km/h (1 Bft) SO 1,00 h 0,483 mm 5,6 UV-I 744 W/m 12,6 C 24,3 C 6,4 km/h (2 Bft)
08.08.2014 13:00 24,8 C 47 % 1013,8 hPa 0,0 l/m 3,4 km/h (1 Bft) SO 1,00 h 0,483 mm 5,5 UV-I 687 W/m 12,8 C 24,8 C 5,8 km/h (2 Bft)
08.08.2014 14:00 25,4 C 44 % 1013,1 hPa 0,0 l/m 5,1 km/h (1 Bft) S-SO 1,00 h 0,457 mm 5,2 UV-I 645 W/m 12,2 C 25,3 C 8,7 km/h (2 Bft)
08.08.2014 15:00 26,4 C 38 % 1012,6 hPa 0,0 l/m 6,8 km/h (2 Bft) SO 1,00 h 0,457 mm 4,8 UV-I 701 W/m 10,7 C 26,1 C 10,8 km/h (2 Bft)
08.08.2014 16:00 26,3 C 37 % 1012,2 hPa 0,0 l/m 6,2 km/h (2 Bft) S-SO 1,00 h 0,508 mm 3,4 UV-I 583 W/m 10,5 C 26,1 C 10,0 km/h (2 Bft)
08.08.2014 17:00 25,4 C 39 % 1011,9 hPa 0,0 l/m 4,8 km/h (1 Bft) S 1,00 h 0,432 mm 1,6 UV-I 239 W/m 10,3 C 25,4 C 7,9 km/h (2 Bft)
08.08.2014 18:00 24,7 C 41 % 1011,2 hPa 0,0 l/m 1,5 km/h (1 Bft) W 0,60 h 0,203 mm 0,8 UV-I 66 W/m 10,5 C 24,7 C 3,3 km/h (1 Bft)
08.08.2014 19:00 24,1 C 45 % 1011,0 hPa 0,0 l/m 3,7 km/h (1 Bft) S-SO 0,00 h 0,076 mm 0,0 UV-I 35 W/m 11,4 C 24,1 C 5,5 km/h (1 Bft)
08.08.2014 20:00 22,5 C 54 % 1010,9 hPa 0,0 l/m 1,4 km/h (1 Bft) SO 0,00 h 0,076 mm 0,0 UV-I 12 W/m 12,8 C 22,5 C 3,0 km/h (1 Bft)
08.08.2014 21:00 20,1 C 67 % 1011,0 hPa 0,0 l/m 0,3 km/h (0 Bft) O 0,00 h 0,026 mm 0,0 UV-I 0 W/m 13,7 C 20,1 C 1,3 km/h (1 Bft)
08.08.2014 22:00 17,8 C 78 % 1010,7 hPa 0,0 l/m 1,2 km/h (1 Bft) O 0,00 h 0,025 mm 0,0 UV-I 0 W/m 14,0 C 17,8 C 2,5 km/h (1 Bft)
08.08.2014 23:00 16,5 C 83 % 1010,6 hPa 0,0 l/m 0,6 km/h (0 Bft) O-NO 0,00 h 0,025 mm 0,0 UV-I 0 W/m 13,6 C 16,5 C 1,5 km/h (1 Bft)
09.08.2014 00:00 15,4 C 87 % 1010,4 hPa 0,0 l/m 0,1 km/h (0 Bft) O 0,00 h 0,025 mm 0,0 UV-I 0 W/m 13,2 C 15,4 C 0,6 km/h (0 Bft)
09.08.2014 01:00 14,7 C 89 % 1010,2 hPa 0,0 l/m 0,0 km/h (0 Bft) N 0,00 h 0,000 mm 0,0 UV-I 0 W/m 12,9 C 14,7 C 0,0 km/h (0 Bft)
09.08.2014 02:00 13,9 C 91 % 1009,9 hPa 0,0 l/m 0,0 km/h (0 Bft) O-NO 0,00 h 0,000 mm 0,0 UV-I 0 W/m 12,5 C 13,9 C 0,1 km/h (0 Bft)
09.08.2014 03:00 13,5 C 92 % 1009,5 hPa 0,0 l/m 0,0 km/h (0 Bft) N 0,00 h 0,000 mm 0,0 UV-I 0 W/m 12,2 C 13,5 C 0,0 km/h (0 Bft)
09.08.2014 04:00 13,0 C 93 % 1009,3 hPa 0,0 l/m 0,0 km/h (0 Bft) N 0,00 h 0,000 mm 0,0 UV-I 0 W/m 11,9 C 13,0 C 0,0 km/h (0 Bft)
09.08.2014 05:00 12,6 C 94 % 1009,2 hPa 0,0 l/m 0,1 km/h (0 Bft) N 0,00 h 0,000 mm 0,0 UV-I 5 W/m 11,6 C 12,6 C 0,5 km/h (0 Bft)
09.08.2014 06:00 12,8 C 94 % 1009,2 hPa 0,0 l/m 0,1 km/h (0 Bft) N 0,02 h 0,000 mm 0,0 UV-I 19 W/m 11,8 C 12,8 C 0,4 km/h (0 Bft)
09.08.2014 07:00 14,7 C 91 % 1009,3 hPa 0,0 l/m 0,1 km/h (0 Bft) N 0,45 h 0,000 mm 0,6 UV-I 49 W/m 13,2 C 14,7 C 0,4 km/h (0 Bft)
09.08.2014 08:00 17,5 C 83 % 1009,9 hPa 0,0 l/m 2,3 km/h (1 Bft) NW 1,00 h 0,025 mm 1,1 UV-I 192 W/m 14,5 C 17,5 C 4,0 km/h (1 Bft)
09.08.2014 09:00 21,2 C 69 % 1010,3 hPa 0,0 l/m 7,1 km/h (2 Bft) S 1,00 h 0,127 mm 2,5 UV-I 464 W/m 15,4 C 20,5 C 11,0 km/h (2 Bft)
09.08.2014 10:00 23,5 C 63 % 1010,6 hPa 0,0 l/m 9,2 km/h (2 Bft) SW 1,00 h 0,305 mm 4,1 UV-I 625 W/m 16,0 C 22,7 C 14,6 km/h (3 Bft)
09.08.2014 11:00 24,4 C 58 % 1010,8 hPa 0,0 l/m 12,5 km/h (3 Bft) W-SW 1,00 h 0,432 mm 3,7 UV-I 425 W/m 15,7 C 23,2 C 19,5 km/h (3 Bft)
09.08.2014 12:00 23,5 C 59 % 1011,4 hPa 0,0 l/m 12,7 km/h (3 Bft) SW 1,00 h 0,356 mm 3,8 UV-I 321 W/m 15,1 C 22,0 C 19,7 km/h (3 Bft)
09.08.2014 13:00 23,6 C 61 % 1011,6 hPa 0,0 l/m 12,1 km/h (2 Bft) W 1,00 h 0,305 mm 2,8 UV-I 294 W/m 15,7 C 22,2 C 18,5 km/h (3 Bft)
09.08.2014 14:00 23,9 C 58 % 1012,0 hPa 0,0 l/m 12,3 km/h (3 Bft) W 1,00 h 0,254 mm 2,7 UV-I 286 W/m 15,1 C 22,5 C 18,9 km/h (3 Bft)
09.08.2014 15:00 24,5 C 54 % 1012,1 hPa 0,0 l/m 10,4 km/h (2 Bft) W-SW 1,00 h 0,254 mm 3,1 UV-I 407 W/m 14,5 C 23,6 C 16,5 km/h (3 Bft)
09.08.2014 16:00 24,8 C 50 % 1012,2 hPa 0,0 l/m 11,8 km/h (2 Bft) W 1,00 h 0,330 mm 2,2 UV-I 324 W/m 13,6 C 23,7 C 18,6 km/h (3 Bft)
09.08.2014 17:00 24,3 C 49 % 1012,6 hPa 0,0 l/m 10,8 km/h (2 Bft) W-SW 1,00 h 0,305 mm 1,3 UV-I 222 W/m 12,9 C 23,3 C 17,0 km/h (3 Bft)
09.08.2014 18:00 23,6 C 53 % 1013,0 hPa 0,0 l/m 9,2 km/h (2 Bft) W-SW 1,00 h 0,229 mm 0,7 UV-I 129 W/m 13,3 C 22,8 C 14,5 km/h (3 Bft)
09.08.2014 19:00 22,6 C 60 % 1013,4 hPa 0,0 l/m 8,0 km/h (2 Bft) W 0,65 h 0,152 mm 0,0 UV-I 60 W/m 14,4 C 22,0 C 12,4 km/h (3 Bft)
09.08.2014 20:00 21,3 C 64 % 1013,8 hPa 0,0 l/m 3,2 km/h (1 Bft) W-SW 0,00 h 0,102 mm 0,0 UV-I 19 W/m 14,1 C 21,2 C 5,5 km/h (1 Bft)
09.08.2014 21:00 19,0 C 74 % 1014,4 hPa 0,0 l/m 0,4 km/h (0 Bft) O 0,00 h 0,025 mm 0,0 UV-I 0 W/m 14,1 C 19,0 C 1,2 km/h (1 Bft)
09.08.2014 22:00 16,8 C 83 % 1014,6 hPa 0,0 l/m 0,6 km/h (0 Bft) O 0,00 h 0,025 mm 0,0 UV-I 0 W/m 13,9 C 16,8 C 2,1 km/h (1 Bft)
09.08.2014 23:00 15,5 C 88 % 1014,8 hPa 0,0 l/m 0,2 km/h (0 Bft) O 0,00 h 0,025 mm 0,0 UV-I 0 W/m 13,5 C 15,5 C 1,1 km/h (1 Bft)
10.08.2014 00:00 14,2 C 91 % 1014,7 hPa 0,0 l/m 1,2 km/h (1 Bft) O 0,00 h 0,000 mm 0,0 UV-I 0 W/m 12,7 C 14,2 C 2,4 km/h (1 Bft)
10.08.2014 01:00 13,0 C 92 % 1013,9 hPa 0,0 l/m 0,2 km/h (0 Bft) O 0,00 h 0,000 mm 0,0 UV-I 0 W/m 11,8 C 13,0 C 0,6 km/h (0 Bft)
10.08.2014 02:00 12,4 C 93 % 1013,7 hPa 0,0 l/m 0,0 km/h (0 Bft) S-SO 0,00 h 0,000 mm 0,0 UV-I 0 W/m 11,4 C 12,4 C 0,2 km/h (0 Bft)
10.08.2014 03:00 11,8 C 94 % 1013,2 hPa 0,0 l/m 0,0 km/h (0 Bft) N 0,00 h 0,000 mm 0,0 UV-I 0 W/m 10,9 C 11,8 C 0,0 km/h (0 Bft)
10.08.2014 04:00 11,5 C 94 % 1013,1 hPa 0,0 l/m 0,1 km/h (0 Bft) SO 0,00 h 0,000 mm 0,0 UV-I 0 W/m 10,6 C 11,5 C 0,5 km/h (0 Bft)
10.08.2014 05:00 11,5 C 95 % 1013,6 hPa 0,0 l/m 0,1 km/h (0 Bft) NW 0,00 h 0,000 mm 0,0 UV-I 5 W/m 10,6 C 11,5 C 0,6 km/h (0 Bft)
10.08.2014 06:00 11,4 C 95 % 1013,7 hPa 0,0 l/m 0,1 km/h (0 Bft) O 0,03 h 0,000 mm 0,0 UV-I 22 W/m 10,6 C 11,4 C 0,5 km/h (0 Bft)
10.08.2014 07:00 14,9 C 93 % 1012,9 hPa 0,0 l/m 2,3 km/h (1 Bft) O-NO 1,00 h 0,000 mm 0,5 UV-I 128 W/m 13,7 C 14,9 C 4,5 km/h (1 Bft)
10.08.2014 08:00 18,9 C 85 % 1012,0 hPa 0,0 l/m 6,2 km/h (2 Bft) SO 1,00 h 0,076 mm 0,7 UV-I 133 W/m 16,2 C 18,4 C 9,9 km/h (2 Bft)
10.08.2014 09:00 19,7 C 79 % 1012,0 hPa 0,0 l/m 10,4 km/h (2 Bft) S-SO 1,00 h 0,102 mm 1,6 UV-I 202 W/m 16,1 C 18,3 C 16,3 km/h (3 Bft)
10.08.2014 10:00 22,8 C 69 % 1011,6 hPa 0,0 l/m 7,7 km/h (2 Bft) SO 1,00 h 0,152 mm 3,2 UV-I 498 W/m 16,6 C 22,3 C 11,7 km/h (2 Bft)
10.08.2014 11:00 25,1 C 58 % 1011,2 hPa 0,0 l/m 11,7 km/h (2 Bft) S-SO 1,00 h 0,330 mm 4,6 UV-I 668 W/m 16,2 C 24,0 C 17,1 km/h (3 Bft)
10.08.2014 12:00 26,2 C 52 % 1010,9 hPa 0,0 l/m 12,4 km/h (3 Bft) S-SO 1,00 h 0,483 mm 5,0 UV-I 691 W/m 15,6 C 25,2 C 18,7 km/h (3 Bft)
10.08.2014 13:00 26,8 C 52 % 1010,5 hPa 0,0 l/m 13,1 km/h (3 Bft) S 1,00 h 0,533 mm 5,2 UV-I 731 W/m 15,9 C 25,7 C 19,7 km/h (3 Bft)
10.08.2014 14:00 27,2 C 48 % 1010,1 hPa 0,0 l/m 14,2 km/h (3 Bft) S-SO 1,00 h 0,559 mm 5,0 UV-I 660 W/m 15,4 C 26,1 C 20,8 km/h (4 Bft)
10.08.2014 15:00 27,6 C 46 % 1009,6 hPa 0,0 l/m 14,7 km/h (3 Bft) S 1,00 h 0,533 mm 4,2 UV-I 636 W/m 14,8 C 26,6 C 22,4 km/h (4 Bft)
10.08.2014 16:00 28,0 C 44 % 1009,0 hPa 0,0 l/m 12,8 km/h (3 Bft) S-SO 1,00 h 0,533 mm 2,9 UV-I 497 W/m 14,5 C 27,2 C 19,7 km/h (3 Bft)
10.08.2014 17:00 27,0 C 46 % 1008,3 hPa 0,0 l/m 10,4 km/h (2 Bft) S-SO 1,00 h 0,432 mm 1,2 UV-I 186 W/m 14,3 C 26,3 C 14,8 km/h (3 Bft)
10.08.2014 18:00 26,7 C 46 % 1007,6 hPa 0,0 l/m 10,5 km/h (2 Bft) S-SO 1,00 h 0,229 mm 0,7 UV-I 121 W/m 14,0 C 26,0 C 15,5 km/h (3 Bft)
10.08.2014 19:00 26,1 C 47 % 1007,1 hPa 0,0 l/m 6,0 km/h (2 Bft) S-SO 0,70 h 0,178 mm 0,0 UV-I 50 W/m 13,8 C 26,0 C 9,1 km/h (2 Bft)
10.08.2014 20:00 24,5 C 54 % 1007,0 hPa 0,0 l/m 4,4 km/h (1 Bft) SO 0,00 h 0,102 mm 0,0 UV-I 6 W/m 14,4 C 24,5 C 7,0 km/h (2 Bft)
10.08.2014 21:00 22,9 C 60 % 1006,9 hPa 0,0 l/m 4,5 km/h (1 Bft) SO 0,00 h 0,051 mm 0,0 UV-I 0 W/m 14,6 C 22,9 C 7,3 km/h (2 Bft)
10.08.2014 22:00 22,6 C 62 % 1006,3 hPa 0,0 l/m 4,1 km/h (1 Bft) O-SO 0,00 h 0,051 mm 0,0 UV-I 0 W/m 15,1 C 22,6 C 6,9 km/h (2 Bft)
10.08.2014 23:00 21,8 C 68 % 1007,0 hPa 0,8 l/m 7,7 km/h (2 Bft) N 0,00 h 0,051 mm 0,0 UV-I 0 W/m 15,6 C 20,8 C 12,7 km/h (3 Bft)
Min-Datum _ 08.08.14 08.08.14 10.08.14 - 04.08.14 - - - - - 08.08.14 08.08.14 04.08.14
_ Min-Zeit 05:52 15:30 23:00 - 00:12 - - - - - 15:30 05:52 00:45
Minimum _ 10,6 C 33 % 1006,0 hPa - 0,0 km/h (0 Bft) - - - - - 8,6 C 10,6 C 0,0 km/h (0 Bft)
Max-Datum _ 10.08.14 05.08.14 06.08.14 04.08.14 10.08.14 - 05.08.14 10.08.14 09.08.14 05.08.14 04.08.14 10.08.14 10.08.14
_ Max-Zeit 16:26 04:33 00:55 13:05 23:54 - 14:09 14:00 13:00 13:47 14:27 16:37 23:54
Maximum _ 28,4 C 98 % 1018,4 hPa 2,0 l/m 32,2 km/h
N (5 Bft)
- 0,07 h 0,559 mm 7,8 UV-I 1106 W/m 19,2 C 28,2 C 51,5 km/h
N (7 Bft)
Durchschnitt _ 18,4 C 77 % 1013,9 hPa #4,8 l/m 3,3 km/h (1 Bft) S-SO #82:16 h #21,918 mm 2,6 UV-I 279 W/m 13,8 C 18,3 C 5,5 km/h (1 Bft)